Time;durP1;ratioP1;P1;durP2;ratioP2;P2;SDS_P1;SDS_P2;PMS_P1;PMS_P2;Temp;Humidity;BMP_temperature;BMP_pressure;BME280_temperature;BME280_humidity;BME280_pressure;Samples;Min_cycle;Max_cycle;Signal;HPM_P1;HPM_P2
2023/11/05 00:01:39;;;;;;;10.57;2.63;;;;;;;;;;5884890;28;20052;-68
2023/11/05 00:04:30;;;;;;;8.85;3.17;;;;;;;;;;5884839;28;20045;-68
2023/11/05 00:07:21;;;;;;;2.33;2.13;;;;;;;;;;5885116;28;20143;-69
2023/11/05 00:10:12;;;;;;;3.78;2.22;;;;;;;;;;5884885;28;20087;-69
2023/11/05 00:13:03;;;;;;;2.95;2.10;;;;;;;;;;5884706;28;20045;-69
2023/11/05 00:15:54;;;;;;;2.00;1.70;;;;;;;;;;5885247;28;20418;-69
2023/11/05 00:18:45;;;;;;;9.48;2.60;;;;;;;;;;5884815;28;20045;-68
2023/11/05 00:21:36;;;;;;;11.10;3.78;;;;;;;;;;5884597;28;20040;-68
2023/11/05 00:24:26;;;;;;;6.90;3.50;;;;;;;;;;5884770;28;20052;-68
2023/11/05 00:27:17;;;;;;;5.18;2.80;;;;;;;;;;5884500;28;20053;-68
2023/11/05 00:30:09;;;;;;;3.35;2.80;;;;;;;;;;5884537;28;20415;-69
2023/11/05 00:32:59;;;;;;;2.78;1.50;;;;;;;;;;5885022;28;20041;-69
2023/11/05 00:35:50;;;;;;;5.40;2.40;;;;;;;;;;5884585;28;20041;-68
2023/11/05 00:38:41;;;;;;;1.83;1.63;;;;;;;;;;5884487;28;20445;-68
2023/11/05 00:41:32;;;;;;;4.20;2.60;;;;;;;;;;5884309;28;20407;-68
2023/11/05 00:44:23;;;;;;;7.32;2.85;;;;;;;;;;5884093;28;20118;-68
2023/11/05 00:47:13;;;;;;;2.88;2.58;;;;;;;;;;5884213;28;20058;-69
2023/11/05 00:50:05;;;;;;;2.67;1.58;;;;;;;;;;5880800;28;20052;-69
2023/11/05 00:52:56;;;;;;;2.38;2.00;;;;;;;;;;5884429;28;20091;-69
2023/11/05 00:55:47;;;;;;;7.10;3.38;;;;;;;;;;5883063;28;20044;-68
2023/11/05 00:58:37;;;;;;;2.58;1.52;;;;;;;;;;5883707;28;20045;-68
2023/11/05 01:01:29;;;;;;;4.30;2.75;;;;;;;;;;5887694;28;20052;-69
2023/11/05 01:04:19;;;;;;;2.05;1.33;;;;;;;;;;5907545;28;20055;-69
2023/11/05 01:07:10;;;;;;;1.38;1.27;;;;;;;;;;5907652;28;20048;-69
2023/11/05 01:10:02;;;;;;;2.05;1.58;;;;;;;;;;5907294;28;20831;-69
2023/11/05 01:12:53;;;;;;;2.10;1.65;;;;;;;;;;5907794;28;20056;-68
2023/11/05 01:15:43;;;;;;;3.78;1.77;;;;;;;;;;5906108;28;20647;-68
2023/11/05 01:18:34;;;;;;;7.15;1.42;;;;;;;;;;5907156;28;20393;-69
2023/11/05 01:21:25;;;;;;;6.25;1.48;;;;;;;;;;5907374;28;20071;-68
2023/11/05 01:24:16;;;;;;;0.80;0.80;;;;;;;;;;5907300;28;20613;-69
2023/11/05 01:27:07;;;;;;;2.85;0.93;;;;;;;;;;5907340;28;20095;-69
2023/11/05 01:29:58;;;;;;;1.63;0.70;;;;;;;;;;5907770;28;20482;-69
2023/11/05 01:32:48;;;;;;;2.72;1.65;;;;;;;;;;5907370;28;20041;-68
2023/11/05 01:35:39;;;;;;;2.40;1.77;;;;;;;;;;5907103;28;20037;-68
2023/11/05 01:38:30;;;;;;;0.82;0.82;;;;;;;;;;5908429;28;20048;-69
2023/11/05 01:41:21;;;;;;;1.50;1.02;;;;;;;;;;5911725;28;20053;-69
2023/11/05 01:44:12;;;;;;;2.70;0.95;;;;;;;;;;5911395;28;20054;-69
2023/11/05 01:47:03;;;;;;;1.33;1.23;;;;;;;;;;5911416;28;20055;-69
2023/11/05 01:49:54;;;;;;;4.93;2.35;;;;;;;;;;5911688;28;20052;-69
2023/11/05 01:52:48;;;;;;;2.80;1.67;;;;;;;;;;5911281;28;20044;-69
2023/11/05 01:55:39;;;;;;;1.52;1.42;;;;;;;;;;5911335;28;20127;-69
2023/11/05 01:58:31;;;;;;;2.53;1.15;;;;;;;;;;5911095;28;20048;-69
2023/11/05 02:01:24;;;;;;;11.23;5.45;;;;;;;;;;5910972;28;20048;-68
2023/11/05 02:04:15;;;;;;;3.40;2.85;;;;;;;;;;5910890;28;20127;-69
2023/11/05 02:07:06;;;;;;;2.72;2.10;;;;;;;;;;5911106;28;20095;-69
2023/11/05 02:09:57;;;;;;;8.07;3.75;;;;;;;;;;5911121;28;20053;-68
2023/11/05 02:12:58;;;;;;;4.32;1.92;;;;;;;;;;5910839;28;20425;-68
2023/11/05 02:15:49;;;;;;;6.47;2.25;;;;;;;;;;5910912;28;20039;-69
2023/11/05 02:18:40;;;;;;;21.58;9.90;;;;;;;;;;5910681;28;20048;-68
2023/11/05 02:21:39;;;;;;;25.35;15.50;;;;;;;;;;5910704;28;20504;-69
2023/11/05 02:24:31;;;;;;;11.27;5.40;;;;;;;;;;5910856;28;20048;-69
2023/11/05 02:27:25;;;;;;;16.45;4.25;;;;;;;;;;5910598;28;20466;-69
2023/11/05 02:30:23;;;;;;;13.38;6.70;;;;;;;;;;5910527;28;20535;-69
2023/11/05 02:33:14;;;;;;;17.48;7.50;;;;;;;;;;5910418;28;20048;-69
2023/11/05 02:36:05;;;;;;;10.10;5.43;;;;;;;;;;5910134;28;20052;-69
2023/11/05 02:38:56;;;;;;;4.07;2.58;;;;;;;;;;5910727;28;20429;-68
2023/11/05 02:41:47;;;;;;;2.58;2.03;;;;;;;;;;5909945;28;20049;-68
2023/11/05 02:44:38;;;;;;;1.95;1.77;;;;;;;;;;5910324;28;20490;-68
2023/11/05 02:47:28;;;;;;;1.83;1.50;;;;;;;;;;5910048;28;20059;-69
2023/11/05 02:50:19;;;;;;;2.95;1.40;;;;;;;;;;5909617;28;20044;-69
2023/11/05 02:53:15;;;;;;;0.85;0.85;;;;;;;;;;5910088;28;20055;-69
2023/11/05 02:56:06;;;;;;;5.50;1.92;;;;;;;;;;5909944;28;20413;-69
2023/11/05 02:58:57;;;;;;;2.17;1.98;;;;;;;;;;5910282;28;20052;-68
2023/11/05 03:01:48;;;;;;;1.92;1.83;;;;;;;;;;5909922;28;20048;-69
2023/11/05 03:04:39;;;;;;;3.22;1.95;;;;;;;;;;5909265;28;20055;-69
2023/11/05 03:07:31;;;;;;;6.90;3.95;;;;;;;;;;5909543;28;20098;-69
2023/11/05 03:10:22;;;;;;;6.85;4.03;;;;;;;;;;5909668;28;20051;-69
2023/11/05 03:13:13;;;;;;;8.90;2.70;;;;;;;;;;5909418;28;20045;-69
2023/11/05 03:16:05;;;;;;;3.60;2.25;;;;;;;;;;5909597;28;20060;-69
2023/11/05 03:18:56;;;;;;;3.92;2.90;;;;;;;;;;5909836;28;20056;-68
2023/11/05 03:21:46;;;;;;;3.58;2.55;;;;;;;;;;5909380;28;20049;-68
2023/11/05 03:24:39;;;;;;;1.50;1.13;;;;;;;;;;5909086;28;20048;-69
2023/11/05 03:27:30;;;;;;;1.10;1.00;;;;;;;;;;5909400;28;20193;-69
2023/11/05 03:30:21;;;;;;;1.17;1.08;;;;;;;;;;5908914;28;20071;-69
2023/11/05 03:33:11;;;;;;;1.65;1.38;;;;;;;;;;5909138;28;20461;-69
2023/11/05 03:36:03;;;;;;;1.38;1.27;;;;;;;;;;5909272;28;20049;-69
2023/11/05 03:38:53;;;;;;;1.58;1.20;;;;;;;;;;5909419;28;20045;-68
2023/11/05 03:41:44;;;;;;;1.70;1.20;;;;;;;;;;5908713;28;20052;-69
2023/11/05 03:44:35;;;;;;;3.45;1.75;;;;;;;;;;5908497;28;20036;-69
2023/11/05 03:47:26;;;;;;;5.18;3.38;;;;;;;;;;5908842;28;20133;-68
2023/11/05 03:50:17;;;;;;;12.38;6.40;;;;;;;;;;5908583;28;20044;-68
2023/11/05 03:53:08;;;;;;;21.60;9.43;;;;;;;;;;5908679;28;20060;-69
2023/11/05 03:55:59;;;;;;;16.67;9.27;;;;;;;;;;5909102;28;20071;-68
2023/11/05 03:58:50;;;;;;;9.30;5.13;;;;;;;;;;5908656;28;20043;-68
2023/11/05 04:01:40;;;;;;;6.03;2.10;;;;;;;;;;5908052;28;20044;-68
2023/11/05 04:04:31;;;;;;;3.42;1.77;;;;;;;;;;5908329;28;20044;-68
2023/11/05 04:07:22;;;;;;;5.78;1.23;;;;;;;;;;5908431;28;20355;-68
2023/11/05 04:10:14;;;;;;;4.78;1.73;;;;;;;;;;5908613;28;20052;-69
2023/11/05 04:13:05;;;;;;;1.15;1.13;;;;;;;;;;5908405;28;20048;-69
2023/11/05 04:15:59;;;;;;;5.90;2.92;;;;;;;;;;5909011;28;20063;-68
2023/11/05 04:18:50;;;;;;;1.83;1.73;;;;;;;;;;5908444;28;20044;-68
2023/11/05 04:21:41;;;;;;;3.33;1.58;;;;;;;;;;5908039;28;20079;-68
2023/11/05 04:24:32;;;;;;;3.80;1.52;;;;;;;;;;5907881;28;20044;-68
2023/11/05 04:27:22;;;;;;;1.05;1.00;;;;;;;;;;5907927;28;20051;-69
2023/11/05 04:30:13;;;;;;;1.92;1.38;;;;;;;;;;5907540;28;20051;-69
2023/11/05 04:33:04;;;;;;;0.63;0.60;;;;;;;;;;5907757;28;20586;-69
2023/11/05 04:35:55;;;;;;;2.08;1.42;;;;;;;;;;5908370;28;20133;-69
2023/11/05 04:38:46;;;;;;;0.85;0.82;;;;;;;;;;5907965;28;20063;-69
2023/11/05 04:41:36;;;;;;;3.25;1.58;;;;;;;;;;5907725;28;20041;-68
2023/11/05 04:44:27;;;;;;;0.70;0.68;;;;;;;;;;5907855;28;20693;-69
2023/11/05 04:47:18;;;;;;;1.35;1.25;;;;;;;;;;5907849;28;20048;-68
2023/11/05 04:50:09;;;;;;;1.80;1.35;;;;;;;;;;5907912;28;20056;-69
2023/11/05 04:53:00;;;;;;;0.93;0.90;;;;;;;;;;5907685;28;20055;-69
2023/11/05 04:55:51;;;;;;;3.58;1.48;;;;;;;;;;5908357;28;20041;-69
2023/11/05 04:58:42;;;;;;;0.95;0.90;;;;;;;;;;5907732;28;20048;-69
2023/11/05 05:01:33;;;;;;;1.58;1.48;;;;;;;;;;5907609;28;20231;-68
2023/11/05 05:04:24;;;;;;;2.45;1.85;;;;;;;;;;5906222;28;20506;-69
2023/11/05 05:07:15;;;;;;;1.38;1.27;;;;;;;;;;5907767;28;20064;-69
2023/11/05 05:10:06;;;;;;;3.75;1.73;;;;;;;;;;5907622;28;20452;-69
2023/11/05 05:12:57;;;;;;;1.30;1.20;;;;;;;;;;5910414;28;20182;-69
2023/11/05 05:15:48;;;;;;;7.68;3.05;;;;;;;;;;5912360;28;20045;-69
2023/11/05 05:18:42;;;;;;;6.82;4.10;;;;;;;;;;5912032;28;20465;-69
2023/11/05 05:21:33;;;;;;;3.97;3.25;;;;;;;;;;5911920;28;20049;-68
2023/11/05 05:24:24;;;;;;;5.65;3.08;;;;;;;;;;5910492;28;20040;-68
2023/11/05 05:27:15;;;;;;;4.50;2.70;;;;;;;;;;5912059;28;20479;-69
2023/11/05 05:30:06;;;;;;;3.70;2.00;;;;;;;;;;5911840;28;20056;-69
2023/11/05 05:32:57;;;;;;;2.10;1.25;;;;;;;;;;5912232;28;20624;-69
2023/11/05 05:35:49;;;;;;;1.48;1.38;;;;;;;;;;5907757;28;20060;-69
2023/11/05 05:38:39;;;;;;;2.25;1.40;;;;;;;;;;5888373;28;20056;-69
2023/11/05 05:41:30;;;;;;;2.13;1.92;;;;;;;;;;5888040;28;20047;-69
2023/11/05 05:44:21;;;;;;;3.42;3.10;;;;;;;;;;5888022;28;20053;-69
2023/11/05 05:47:13;;;;;;;6.45;4.95;;;;;;;;;;5888194;28;20056;-69
2023/11/05 05:50:06;;;;;;;6.82;2.85;;;;;;;;;;5888114;28;20056;-69
2023/11/05 05:53:00;;;;;;;3.65;1.30;;;;;;;;;;5888464;28;20459;-69
2023/11/05 05:55:51;;;;;;;5.28;3.10;;;;;;;;;;5888013;28;20041;-69
2023/11/05 05:58:42;;;;;;;1.38;0.80;;;;;;;;;;5888107;28;20414;-69
2023/11/05 06:01:33;;;;;;;4.65;1.52;;;;;;;;;;5888079;28;20049;-69
2023/11/05 06:04:25;;;;;;;2.83;2.63;;;;;;;;;;5887856;28;20454;-69
2023/11/05 06:07:16;;;;;;;8.27;3.58;;;;;;;;;;5887846;28;20052;-69
2023/11/05 06:10:09;;;;;;;20.13;10.88;;;;;;;;;;5887701;28;20625;-69
2023/11/05 06:13:00;;;;;;;12.80;9.32;;;;;;;;;;5897866;28;20048;-69
2023/11/05 06:15:52;;;;;;;16.48;10.30;;;;;;;;;;5911232;28;20049;-69
2023/11/05 06:18:43;;;;;;;5.90;4.65;;;;;;;;;;5910550;28;20040;-69
2023/11/05 06:21:34;;;;;;;5.45;3.95;;;;;;;;;;5910813;28;20052;-69
2023/11/05 06:24:25;;;;;;;2.55;1.70;;;;;;;;;;5910175;28;20048;-69
2023/11/05 06:27:15;;;;;;;2.03;1.38;;;;;;;;;;5910034;28;20048;-69
2023/11/05 06:30:08;;;;;;;1.80;1.60;;;;;;;;;;5910810;28;20521;-69
2023/11/05 06:32:59;;;;;;;17.83;9.80;;;;;;;;;;5912617;28;20058;-69
2023/11/05 06:35:50;;;;;;;29.85;16.85;;;;;;;;;;5903836;28;20049;-69
2023/11/05 06:38:41;;;;;;;18.02;7.47;;;;;;;;;;5901335;28;20553;-69
2023/11/05 06:41:32;;;;;;;14.48;6.20;;;;;;;;;;5899426;28;20390;-69
2023/11/05 06:44:23;;;;;;;6.07;5.25;;;;;;;;;;5888945;28;20064;-69
2023/11/05 06:47:14;;;;;;;9.88;4.38;;;;;;;;;;5888089;28;20076;-69
2023/11/05 06:50:06;;;;;;;1.63;1.52;;;;;;;;;;5888621;28;20051;-69
2023/11/05 06:52:57;;;;;;;2.05;1.52;;;;;;;;;;5888871;28;20087;-69
2023/11/05 06:55:48;;;;;;;1.05;0.98;;;;;;;;;;5888389;28;20514;-69
2023/11/05 06:58:39;;;;;;;1.33;1.20;;;;;;;;;;5888301;28;20049;-69
2023/11/05 07:01:30;;;;;;;3.38;1.95;;;;;;;;;;5888316;28;20048;-69
2023/11/05 07:04:21;;;;;;;2.97;2.08;;;;;;;;;;5888546;28;20060;-69
2023/11/05 07:07:12;;;;;;;2.63;1.63;;;;;;;;;;5887569;28;20049;-69
2023/11/05 07:10:06;;;;;;;0.90;0.85;;;;;;;;;;5888616;28;20517;-69
2023/11/05 07:12:57;;;;;;;3.25;1.33;;;;;;;;;;5887423;28;20079;-69
2023/11/05 07:15:48;;;;;;;1.10;0.95;;;;;;;;;;5888216;28;20049;-69
2023/11/05 07:18:39;;;;;;;3.15;1.33;;;;;;;;;;5887913;28;20049;-69
2023/11/05 07:21:31;;;;;;;1.88;1.08;;;;;;;;;;5886969;28;20178;-69
2023/11/05 07:24:24;;;;;;;1.75;1.55;;;;;;;;;;5888348;28;20045;-69
2023/11/05 07:27:15;;;;;;;5.80;4.60;;;;;;;;;;5887708;28;20057;-69
2023/11/05 07:30:09;;;;;;;9.05;6.60;;;;;;;;;;5887596;28;20510;-69
2023/11/05 07:33:00;;;;;;;15.05;9.35;;;;;;;;;;5888132;28;20060;-69
2023/11/05 07:35:51;;;;;;;12.38;7.78;;;;;;;;;;5886601;28;20151;-69
2023/11/05 07:38:42;;;;;;;9.80;6.53;;;;;;;;;;5887329;28;20474;-69
2023/11/05 07:41:34;;;;;;;7.93;4.80;;;;;;;;;;5886995;28;20056;-69
2023/11/05 07:44:25;;;;;;;3.72;2.28;;;;;;;;;;5887565;28;20629;-69
2023/11/05 07:47:16;;;;;;;1.73;1.48;;;;;;;;;;5887269;28;20048;-69
2023/11/05 07:50:12;;;;;;;1.75;1.17;;;;;;;;;;5887142;28;20617;-70
2023/11/05 07:53:03;;;;;;;1.95;1.08;;;;;;;;;;5909820;28;20533;-70
2023/11/05 07:55:55;;;;;;;1.23;0.90;;;;;;;;;;5910954;28;20139;-70
2023/11/05 07:58:46;;;;;;;0.88;0.75;;;;;;;;;;5909428;28;20056;-70
2023/11/05 08:01:36;;;;;;;3.40;2.25;;;;;;;;;;5899052;28;20052;-69
2023/11/05 08:04:27;;;;;;;2.40;2.20;;;;;;;;;;5887163;28;20052;-69
2023/11/05 08:07:18;;;;;;;2.65;1.63;;;;;;;;;;5886159;28;20052;-69
2023/11/05 08:10:10;;;;;;;6.85;2.78;;;;;;;;;;5903996;28;20094;-69
2023/11/05 08:13:04;;;;;;;12.95;4.85;;;;;;;;;;5887668;28;20053;-69
2023/11/05 08:15:55;;;;;;;4.00;3.55;;;;;;;;;;5887395;28;20044;-68
2023/11/05 08:18:45;;;;;;;5.32;3.25;;;;;;;;;;5886508;28;20056;-69
2023/11/05 08:21:36;;;;;;;17.77;7.13;;;;;;;;;;5886078;28;20041;-69
2023/11/05 08:24:27;;;;;;;128.95;52.75;;;;;;;;;;5887052;28;20080;-69
2023/11/05 08:27:18;;;;;;;63.65;29.52;;;;;;;;;;5885315;28;20057;-69
2023/11/05 08:30:11;;;;;;;40.25;16.45;;;;;;;;;;5886465;28;20048;-69
2023/11/05 08:33:02;;;;;;;34.22;13.40;;;;;;;;;;5886472;28;20049;-69
2023/11/05 08:35:54;;;;;;;5.28;3.80;;;;;;;;;;5886546;28;20053;-69
2023/11/05 08:38:45;;;;;;;19.20;10.25;;;;;;;;;;5886233;28;20056;-70
2023/11/05 08:41:35;;;;;;;89.60;33.42;;;;;;;;;;5886148;28;20410;-70
2023/11/05 08:44:26;;;;;;;39.85;10.07;;;;;;;;;;5884894;28;20387;-71
2023/11/05 08:47:17;;;;;;;16.23;8.82;;;;;;;;;;5885776;28;20507;-73
2023/11/05 08:50:08;;;;;;;5.13;3.03;;;;;;;;;;5886485;28;20065;-73
2023/11/05 08:52:59;;;;;;;4.30;2.72;;;;;;;;;;5909306;28;20048;-73
2023/11/05 08:55:50;;;;;;;239.18;91.30;;;;;;;;;;5904313;28;20037;-73
2023/11/05 08:58:40;;;;;;;260.73;94.68;;;;;;;;;;5886421;28;20453;-73
2023/11/05 09:01:31;;;;;;;45.65;18.15;;;;;;;;;;5885971;28;20044;-73
2023/11/05 09:04:23;;;;;;;70.65;27.45;;;;;;;;;;5884805;28;20498;-74
2023/11/05 09:07:14;;;;;;;184.80;57.85;;;;;;;;;;5885883;28;20049;-74
2023/11/05 09:10:09;;;;;;;49.10;19.52;;;;;;;;;;5886502;28;20447;-74
2023/11/05 09:13:00;;;;;;;40.42;16.20;;;;;;;;;;5886564;28;20128;-74
2023/11/05 09:15:52;;;;;;;65.22;28.33;;;;;;;;;;5885494;28;20051;-74
2023/11/05 09:18:43;;;;;;;14.63;8.68;;;;;;;;;;5886235;28;20045;-74
2023/11/05 09:21:35;;;;;;;3.65;1.80;;;;;;;;;;5885771;28;20444;-75
2023/11/05 09:24:29;;;;;;;27.40;13.63;;;;;;;;;;5885912;28;20076;-75
2023/11/05 09:27:21;;;;;;;3.40;1.73;;;;;;;;;;5885927;28;21022;-75
2023/11/05 09:30:13;;;;;;;5.55;3.08;;;;;;;;;;5886045;28;20048;-75
2023/11/05 09:33:05;;;;;;;17.00;6.95;;;;;;;;;;5885473;28;20049;-75
2023/11/05 09:35:56;;;;;;;3.13;2.17;;;;;;;;;;5885631;28;20088;-75
2023/11/05 09:38:47;;;;;;;57.08;19.33;;;;;;;;;;5886122;28;20060;-75
2023/11/05 09:41:38;;;;;;;4.88;3.60;;;;;;;;;;5885618;28;20056;-75
2023/11/05 09:44:29;;;;;;;7.75;4.60;;;;;;;;;;5885521;28;20495;-75
2023/11/05 09:47:21;;;;;;;17.02;6.93;;;;;;;;;;5884309;28;20406;-75
2023/11/05 09:50:12;;;;;;;72.75;29.08;;;;;;;;;;5884224;28;20060;-75
2023/11/05 09:53:15;;;;;;;94.82;37.15;;;;;;;;;;5885714;28;20525;-74
2023/11/05 09:56:06;;;;;;;21.05;10.23;;;;;;;;;;5885183;28;20052;-75
2023/11/05 09:58:57;;;;;;;40.55;17.02;;;;;;;;;;5887024;28;20076;-75
2023/11/05 10:01:54;;;;;;;81.00;37.15;;;;;;;;;;5888454;28;20522;-75
2023/11/05 10:04:45;;;;;;;65.13;19.30;;;;;;;;;;5893514;28;20437;-76
2023/11/05 10:07:36;;;;;;;49.20;20.00;;;;;;;;;;5892183;28;20041;-75
2023/11/05 10:10:27;;;;;;;17.58;6.85;;;;;;;;;;5889830;28;20052;-75
2023/11/05 10:13:18;;;;;;;62.58;33.30;;;;;;;;;;5888726;28;20056;-75
2023/11/05 10:16:11;;;;;;;24.50;11.85;;;;;;;;;;5888421;28;20136;-75
2023/11/05 10:19:01;;;;;;;13.68;8.50;;;;;;;;;;5889534;28;20049;-75
2023/11/05 10:21:52;;;;;;;26.67;17.58;;;;;;;;;;5889360;28;20052;-75
2023/11/05 10:24:45;;;;;;;93.65;45.67;;;;;;;;;;5887678;28;20041;-75
2023/11/05 10:27:37;;;;;;;12.18;7.75;;;;;;;;;;5908068;28;20506;-75
2023/11/05 10:30:30;;;;;;;49.30;22.58;;;;;;;;;;5912490;28;20063;-75
2023/11/05 10:33:21;;;;;;;9.80;5.55;;;;;;;;;;5912274;28;20056;-75
2023/11/05 10:36:12;;;;;;;38.67;19.52;;;;;;;;;;5903434;28;20051;-75
2023/11/05 10:39:05;;;;;;;24.10;11.30;;;;;;;;;;5889359;28;20055;-75
2023/11/05 10:41:56;;;;;;;18.85;7.95;;;;;;;;;;5889532;28;20048;-76
2023/11/05 10:44:48;;;;;;;40.95;20.35;;;;;;;;;;5887386;28;20502;-76
2023/11/05 10:47:39;;;;;;;19.48;9.13;;;;;;;;;;5887534;28;20060;-76
2023/11/05 10:50:31;;;;;;;49.47;25.25;;;;;;;;;;5888542;28;20045;-75
2023/11/05 10:53:22;;;;;;;141.93;64.22;;;;;;;;;;5887470;28;20600;-75
2023/11/05 10:56:36;;;;;;;124.43;48.78;;;;;;;;;;5887089;28;20044;-75
2023/11/05 10:59:37;;;;;;;90.78;34.55;;;;;;;;;;5888635;28;20110;-76
2023/11/05 11:02:38;;;;;;;60.00;25.05;;;;;;;;;;5887437;28;20045;-76
2023/11/05 11:05:43;;;;;;;26.08;12.13;;;;;;;;;;5887824;28;20120;-76
2023/11/05 11:08:34;;;;;;;131.98;49.58;;;;;;;;;;5888637;28;20503;-76
2023/11/05 11:11:25;;;;;;;283.05;92.05;;;;;;;;;;5888109;28;20048;-76
2023/11/05 11:14:16;;;;;;;45.53;20.65;;;;;;;;;;5887172;28;20049;-76
2023/11/05 11:17:14;;;;;;;28.95;12.88;;;;;;;;;;5887842;28;20045;-76
2023/11/05 11:20:12;;;;;;;18.05;12.10;;;;;;;;;;5888523;28;20521;-76
2023/11/05 11:23:03;;;;;;;12.60;7.10;;;;;;;;;;5911137;28;20047;-76
2023/11/05 11:26:00;;;;;;;18.83;12.75;;;;;;;;;;5906137;28;20048;-76
2023/11/05 11:29:04;;;;;;;41.55;16.58;;;;;;;;;;5888420;28;20047;-76
2023/11/05 11:31:55;;;;;;;22.98;13.00;;;;;;;;;;5888103;28;20045;-76
2023/11/05 11:34:46;;;;;;;3.28;2.70;;;;;;;;;;5888150;28;20364;-76
2023/11/05 11:37:37;;;;;;;3.30;3.00;;;;;;;;;;5905936;28;20067;-76
2023/11/05 11:40:28;;;;;;;4.05;2.33;;;;;;;;;;5909379;28;20055;-76
2023/11/05 11:43:21;;;;;;;5.30;4.45;;;;;;;;;;5887333;28;20051;-76
2023/11/05 11:46:12;;;;;;;24.35;16.02;;;;;;;;;;5886137;28;20414;-76
2023/11/05 11:49:11;;;;;;;4.03;1.70;;;;;;;;;;5887736;28;20491;-76
2023/11/05 11:52:06;;;;;;;2.75;1.77;;;;;;;;;;5886804;28;20616;-76
2023/11/05 11:54:57;;;;;;;1.60;1.50;;;;;;;;;;5888104;28;20052;-77
2023/11/05 11:57:49;;;;;;;1.08;0.95;;;;;;;;;;5886617;28;20053;-77
2023/11/05 12:00:40;;;;;;;4.15;2.15;;;;;;;;;;5887397;28;20041;-77
2023/11/05 12:03:32;;;;;;;2.53;2.20;;;;;;;;;;5887011;28;20049;-77
2023/11/05 12:06:23;;;;;;;2.10;1.20;;;;;;;;;;5895314;28;20105;-76
2023/11/05 12:09:24;;;;;;;3.83;1.42;;;;;;;;;;5910421;28;20067;-76
2023/11/05 12:12:19;;;;;;;2.05;1.50;;;;;;;;;;5893994;28;20049;-77
2023/11/05 12:15:11;;;;;;;1.27;1.17;;;;;;;;;;5886737;28;20049;-76
2023/11/05 12:18:03;;;;;;;7.22;1.77;;;;;;;;;;5886548;28;20049;-76
2023/11/05 12:20:54;;;;;;;1.42;1.10;;;;;;;;;;5885687;28;20045;-76
2023/11/05 12:23:47;;;;;;;3.78;1.80;;;;;;;;;;5884900;28;20502;-77
2023/11/05 12:26:41;;;;;;;2.92;2.35;;;;;;;;;;5897378;28;20052;-77
2023/11/05 12:29:32;;;;;;;3.47;1.50;;;;;;;;;;5910041;28;20051;-77
2023/11/05 12:32:39;;;;;;;3.03;1.77;;;;;;;;;;5892623;28;20051;-77
2023/11/05 12:35:30;;;;;;;5.50;2.35;;;;;;;;;;5885987;28;20082;-77
2023/11/05 12:38:22;;;;;;;2.67;1.90;;;;;;;;;;5886580;28;20056;-77
2023/11/05 12:41:13;;;;;;;1.42;1.13;;;;;;;;;;5886386;28;20095;-77
2023/11/05 12:44:06;;;;;;;7.95;1.70;;;;;;;;;;5886528;28;20053;-76
2023/11/05 12:47:01;;;;;;;1.02;0.90;;;;;;;;;;5886494;28;20052;-77
2023/11/05 12:49:52;;;;;;;1.20;0.98;;;;;;;;;;5886992;28;20091;-77
2023/11/05 12:52:43;;;;;;;2.15;1.35;;;;;;;;;;5885988;28;20056;-77
2023/11/05 12:55:34;;;;;;;6.88;2.33;;;;;;;;;;5885994;28;20052;-77
2023/11/05 12:58:24;;;;;;;2.40;2.08;;;;;;;;;;5885931;28;20052;-76
2023/11/05 13:01:16;;;;;;;6.03;2.47;;;;;;;;;;5885810;28;20137;-77
2023/11/05 13:04:09;;;;;;;3.35;1.80;;;;;;;;;;5885678;28;20494;-76
2023/11/05 13:07:07;;;;;;;3.03;1.42;;;;;;;;;;5886050;28;20049;-77
2023/11/05 13:09:58;;;;;;;3.22;1.85;;;;;;;;;;5886588;28;20070;-77
2023/11/05 13:12:49;;;;;;;1.90;1.17;;;;;;;;;;5886207;28;20057;-77
2023/11/05 13:15:40;;;;;;;5.97;0.93;;;;;;;;;;5885904;28;20055;-77
2023/11/05 13:18:30;;;;;;;1.08;0.82;;;;;;;;;;5885877;28;20387;-77
2023/11/05 13:21:21;;;;;;;3.38;1.52;;;;;;;;;;5884468;28;20055;-76
2023/11/05 13:24:12;;;;;;;0.93;0.85;;;;;;;;;;5886241;28;20060;-77
2023/11/05 13:27:03;;;;;;;3.03;1.20;;;;;;;;;;5885638;28;20422;-75
2023/11/05 13:29:54;;;;;;;2.80;1.52;;;;;;;;;;5885177;28;20198;-76
2023/11/05 13:32:46;;;;;;;1.75;1.63;;;;;;;;;;5886386;28;20041;-77
2023/11/05 13:35:38;;;;;;;2.53;1.65;;;;;;;;;;5891468;28;20060;-77
2023/11/05 13:38:30;;;;;;;1.52;1.35;;;;;;;;;;5912258;28;20516;-77
2023/11/05 13:41:21;;;;;;;3.78;1.63;;;;;;;;;;5904743;28;20056;-77
2023/11/05 13:44:12;;;;;;;2.25;1.63;;;;;;;;;;5890628;28;20419;-76
2023/11/05 13:47:03;;;;;;;2.63;1.60;;;;;;;;;;5890036;28;20078;-76
2023/11/05 13:49:54;;;;;;;4.15;1.17;;;;;;;;;;5890758;28;20049;-77
2023/11/05 13:52:45;;;;;;;3.03;1.52;;;;;;;;;;5890107;28;20051;-76
2023/11/05 13:55:36;;;;;;;0.90;0.90;;;;;;;;;;5890391;28;20049;-76
2023/11/05 13:58:27;;;;;;;3.25;1.90;;;;;;;;;;5903637;28;20474;-76
2023/11/05 14:01:18;;;;;;;2.97;1.98;;;;;;;;;;5905492;28;20059;-76
2023/11/05 14:04:09;;;;;;;3.58;2.20;;;;;;;;;;5890059;28;20132;-76
2023/11/05 14:06:59;;;;;;;11.73;4.15;;;;;;;;;;5889574;28;20506;-76
2023/11/05 14:09:50;;;;;;;10.45;5.45;;;;;;;;;;5889561;28;20060;-76
2023/11/05 14:12:41;;;;;;;6.72;2.25;;;;;;;;;;5889546;28;20045;-76
2023/11/05 14:15:32;;;;;;;1.40;0.95;;;;;;;;;;5889427;28;20550;-76
2023/11/05 14:18:22;;;;;;;2.60;1.05;;;;;;;;;;5889458;28;20414;-76
2023/11/05 14:21:13;;;;;;;2.55;1.52;;;;;;;;;;5888698;28;20059;-76
2023/11/05 14:24:05;;;;;;;2.80;1.55;;;;;;;;;;5889365;28;20049;-76
2023/11/05 14:26:55;;;;;;;2.92;1.38;;;;;;;;;;5878612;28;20049;-76
2023/11/05 14:29:46;;;;;;;2.45;1.17;;;;;;;;;;5905387;28;20082;-76
2023/11/05 14:32:37;;;;;;;2.00;1.13;;;;;;;;;;5911155;28;20051;-76
2023/11/05 14:35:28;;;;;;;0.88;0.85;;;;;;;;;;5911976;28;20057;-76
2023/11/05 14:38:19;;;;;;;5.00;3.00;;;;;;;;;;5912129;28;20056;-76
2023/11/05 14:41:12;;;;;;;3.13;2.30;;;;;;;;;;5903042;28;20490;-77
2023/11/05 14:44:03;;;;;;;2.22;1.25;;;;;;;;;;5898857;28;20051;-75
2023/11/05 14:46:54;;;;;;;1.88;1.13;;;;;;;;;;5899032;28;20414;-76
2023/11/05 14:49:47;;;;;;;3.47;1.33;;;;;;;;;;5897459;28;20479;-76
2023/11/05 14:52:38;;;;;;;12.80;8.25;;;;;;;;;;5896275;28;20044;-76
2023/11/05 14:55:29;;;;;;;1.55;1.38;;;;;;;;;;5898715;28;20049;-76
2023/11/05 14:58:19;;;;;;;5.03;3.80;;;;;;;;;;5896811;28;20048;-76
2023/11/05 15:01:13;;;;;;;4.85;3.05;;;;;;;;;;5899937;28;20049;-76
2023/11/05 15:04:04;;;;;;;10.00;6.85;;;;;;;;;;5898673;28;20044;-76
2023/11/05 15:06:55;;;;;;;25.63;15.90;;;;;;;;;;5898662;28;20040;-76
2023/11/05 15:09:47;;;;;;;30.13;17.63;;;;;;;;;;5897009;28;20045;-76
2023/11/05 15:12:38;;;;;;;25.98;14.27;;;;;;;;;;5898899;28;20102;-76
2023/11/05 15:15:29;;;;;;;45.35;32.35;;;;;;;;;;5898328;28;20053;-76
2023/11/05 15:18:20;;;;;;;38.97;24.92;;;;;;;;;;5896257;28;20130;-76
2023/11/05 15:21:11;;;;;;;45.85;26.08;;;;;;;;;;5905576;28;20059;-76
2023/11/05 15:24:02;;;;;;;44.22;26.65;;;;;;;;;;5911479;28;20056;-76
2023/11/05 15:26:53;;;;;;;25.85;13.63;;;;;;;;;;5898654;28;20065;-76
2023/11/05 15:29:43;;;;;;;15.93;9.82;;;;;;;;;;5897942;28;20045;-76
2023/11/05 15:32:37;;;;;;;19.20;14.55;;;;;;;;;;5897265;28;20056;-76
2023/11/05 15:35:27;;;;;;;33.55;16.75;;;;;;;;;;5897610;28;20099;-76
2023/11/05 15:38:18;;;;;;;10.95;7.78;;;;;;;;;;5898247;28;20398;-76
2023/11/05 15:41:12;;;;;;;14.07;8.65;;;;;;;;;;5901554;28;20056;-75
2023/11/05 15:44:05;;;;;;;13.57;7.43;;;;;;;;;;5910813;28;20044;-75
2023/11/05 15:46:57;;;;;;;7.65;6.63;;;;;;;;;;5911202;28;20049;-76
2023/11/05 15:49:48;;;;;;;8.57;6.03;;;;;;;;;;5910314;28;20053;-75
2023/11/05 15:52:39;;;;;;;11.65;7.55;;;;;;;;;;5884421;28;20052;-75
2023/11/05 15:55:30;;;;;;;17.85;7.55;;;;;;;;;;5897325;28;20045;-75
2023/11/05 15:58:21;;;;;;;12.25;5.22;;;;;;;;;;5886148;28;20135;-75
2023/11/05 16:01:12;;;;;;;12.52;6.32;;;;;;;;;;5885630;28;20044;-75
2023/11/05 16:04:03;;;;;;;13.57;8.35;;;;;;;;;;5885938;28;20123;-75
2023/11/05 16:06:55;;;;;;;26.88;10.00;;;;;;;;;;5887131;28;20056;-75
2023/11/05 16:09:47;;;;;;;8.82;6.78;;;;;;;;;;5886821;28;20055;-75
2023/11/05 16:12:38;;;;;;;10.55;5.97;;;;;;;;;;5885034;28;20053;-75
2023/11/05 16:15:29;;;;;;;5.90;5.32;;;;;;;;;;5884678;28;20475;-75
2023/11/05 16:18:20;;;;;;;4.88;4.07;;;;;;;;;;5884553;28;20069;-75
2023/11/05 16:21:11;;;;;;;11.45;5.78;;;;;;;;;;5884089;28;20179;-75
2023/11/05 16:24:02;;;;;;;10.13;7.35;;;;;;;;;;5884581;28;20053;-74
2023/11/05 16:26:53;;;;;;;18.17;11.40;;;;;;;;;;5885932;28;20053;-75
2023/11/05 16:29:46;;;;;;;20.48;13.35;;;;;;;;;;5886188;28;20041;-75
2023/11/05 16:32:37;;;;;;;15.23;10.27;;;;;;;;;;5886571;28;20131;-75
2023/11/05 16:35:28;;;;;;;13.85;11.20;;;;;;;;;;5886074;28;20060;-75
2023/11/05 16:38:19;;;;;;;26.80;15.93;;;;;;;;;;5886719;28;20060;-75
2023/11/05 16:41:11;;;;;;;12.00;10.77;;;;;;;;;;5886169;28;20136;-75
2023/11/05 16:44:02;;;;;;;12.38;10.05;;;;;;;;;;5884972;28;20155;-74
2023/11/05 16:46:52;;;;;;;17.92;8.05;;;;;;;;;;5886836;28;20511;-75
2023/11/05 16:49:43;;;;;;;33.75;8.40;;;;;;;;;;5886343;28;20414;-75
2023/11/05 16:52:34;;;;;;;9.65;7.70;;;;;;;;;;5885685;28;20128;-75
2023/11/05 16:55:25;;;;;;;11.93;8.20;;;;;;;;;;5885811;28;20048;-75
2023/11/05 16:58:16;;;;;;;12.43;7.57;;;;;;;;;;5886447;28;20053;-75
2023/11/05 17:01:15;;;;;;;13.77;9.93;;;;;;;;;;5884945;28;20049;-75